Johnson City, Oregon
Current Conditions -  °F | °C
As of 12:53 AM on Wednesday 28 Jan 2015 (Local Time) from KPDX Reporting Station
Drizzle Drizzle  
Wind Chill: 48°   Ceiling: 300
Heat Index: 48°   Visibility: 1.5mi
Dew Point: 48°   Wind: 3mph
Humidity: 100%   Direction: 260°W
Pressure: 30.29"   Gusts: NA
Location:  45.4079°N, 122.613°W
Report Text: KPDX 280853Z 26003KT 1 1/2SM -DZ BR OVC003 09/09 A3029 RMK AO2 TWR VIS 2 RAE49DZB49 SLP257 P0002 60005 T00890089 51012
Loading
Personal Weather Stations






























Interactive Weather Map New forecast layout! Learn more

10-Day Weather Forecast

Advertisements
Track Severe Weather on mobile